Página principal
METAR-TAF:

METAR-TAF

Aeroportos :

Duchambe, Tadjiquistão

latitude: 38-33N, longitude: 068-47E, altura: 803 m

Observação actual do tempo

O boletim foi feito há 19 minutos, às 18:00 UTC
Vento 4 kt com direcção variável
Temperatura 20°C
Humidade 37%
Pressão 1016 hPa
Visibilidade: 9000 m

METAR: UTDD 181800Z VRB02MPS 9000 NSC 20/05 Q1016 R09/CLRD// NOSIG RMK QFE694/0925

Hora: 23:19 (18:19 UTC)

Previsão

O boletim foi feito há 3 horas e 19 minutos, às 15:00 UTC
Previsão válida de 18 às 16 UTC a 19 às 04 UTC
Vento 4 kt com direcção variável
Visibilidade: 6000 m
Poucas nuvensa uma altura de 6600 ft, Cumulonimbus.
Nuvens dispersasa uma altura de 12000 ft

TAF: UTDD 181500Z 1816/1904 VRB02MPS 6000 FEW066CB SCT120

Observações e previsões do tempo de mais de 4000 aeroportos (mensagens METAR e TAF).

As estações disponíveis são os pontos amarelos e vermelhos sobre o mapa.

Mova o rato sobre o mapa para ver o nome da estação.

Depois clique no ponto para visualizar as observações e previsões meteorológicas.

Para alterar o mapa : clique nos botões verdes com uma cruz preta para aumentar o zoom; no botão verde com uma pitada de zoom; ou nas setas verdes para mapas adjacentes.


METAR-TAF: